Terminal Aerodrome Forecast
Issued by NWS Shreveport, LA

Home | Current Version | Previous Version | Text Only | Print | Product List | Glossary On
Versions: 1 2 3 4 5 6 7 8 9 10 11 12 13 14 15
000
FTUS44 KSHV 022300 RRA
TAFTYR
TAF
KTYR 022347Z 0300/0324 16010KT P6SM OVC250
     FM030600 16007KT P6SM BKN250
     FM030900 16007KT P6SM SCT009 BKN012
     FM031600 17008KT P6SM SCT035 SCT250=

USA.gov is the U.S. government's official web portal to all federal, state and local government web resources and services.